sensor_id;sensor_type;location;lat;lon;timestamp;temperature;humidity
1025;DHT22;501;48.214;11.350;2022-11-15T00:00:52;5.10;62.60
1025;DHT22;501;48.214;11.350;2022-11-15T00:03:20;5.10;61.90
1025;DHT22;501;48.214;11.350;2022-11-15T00:05:46;5.10;61.40
1025;DHT22;501;48.214;11.350;2022-11-15T00:08:12;5.00;61.30
1025;DHT22;501;48.214;11.350;2022-11-15T00:10:38;5.00;61.10
1025;DHT22;501;48.214;11.350;2022-11-15T00:13:06;5.00;61.20
1025;DHT22;501;48.214;11.350;2022-11-15T00:15:33;4.90;60.80
1025;DHT22;501;48.214;11.350;2022-11-15T00:17:59;4.90;60.40
1025;DHT22;501;48.214;11.350;2022-11-15T00:20:25;4.90;60.50
1025;DHT22;501;48.214;11.350;2022-11-15T00:22:50;4.90;60.90
1025;DHT22;501;48.214;11.350;2022-11-15T00:25:16;4.90;61.00
1025;DHT22;501;48.214;11.350;2022-11-15T00:27:41;4.90;61.20
1025;DHT22;501;48.214;11.350;2022-11-15T00:30:07;4.80;61.40
1025;DHT22;501;48.214;11.350;2022-11-15T00:32:33;4.80;61.50
1025;DHT22;501;48.214;11.350;2022-11-15T00:34:59;4.80;61.80
1025;DHT22;501;48.214;11.350;2022-11-15T00:37:24;4.80;60.80
1025;DHT22;501;48.214;11.350;2022-11-15T00:39:50;4.80;60.80
1025;DHT22;501;48.214;11.350;2022-11-15T00:42:15;4.70;60.50
1025;DHT22;501;48.214;11.350;2022-11-15T00:44:41;4.70;60.30
1025;DHT22;501;48.214;11.350;2022-11-15T00:47:06;4.70;60.50
1025;DHT22;501;48.214;11.350;2022-11-15T00:49:35;4.70;60.60
1025;DHT22;501;48.214;11.350;2022-11-15T00:52:00;4.60;60.30
1025;DHT22;501;48.214;11.350;2022-11-15T00:54:26;4.70;60.00
1025;DHT22;501;48.214;11.350;2022-11-15T00:56:52;4.60;60.20
1025;DHT22;501;48.214;11.350;2022-11-15T00:59:17;4.60;60.00
1025;DHT22;501;48.214;11.350;2022-11-15T01:01:43;4.60;59.30
1025;DHT22;501;48.214;11.350;2022-11-15T01:04:08;4.60;59.10
1025;DHT22;501;48.214;11.350;2022-11-15T01:06:34;4.60;59.10
1025;DHT22;501;48.214;11.350;2022-11-15T01:08:59;4.50;59.50
1025;DHT22;501;48.214;11.350;2022-11-15T01:11:25;4.50;59.10
1025;DHT22;501;48.214;11.350;2022-11-15T01:13:51;4.50;59.40
1025;DHT22;501;48.214;11.350;2022-11-15T01:16:18;4.40;61.60
1025;DHT22;501;48.214;11.350;2022-11-15T01:18:45;4.40;62.70
1025;DHT22;501;48.214;11.350;2022-11-15T01:21:13;4.40;64.70
1025;DHT22;501;48.214;11.350;2022-11-15T01:23:39;4.40;66.50
1025;DHT22;501;48.214;11.350;2022-11-15T01:26:07;4.40;67.70
1025;DHT22;501;48.214;11.350;2022-11-15T01:28:35;4.40;67.90
1025;DHT22;501;48.214;11.350;2022-11-15T01:31:02;4.40;66.30
1025;DHT22;501;48.214;11.350;2022-11-15T01:33:29;4.30;65.40
1025;DHT22;501;48.214;11.350;2022-11-15T01:35:55;4.40;64.60
1025;DHT22;501;48.214;11.350;2022-11-15T01:38:23;4.30;63.20
1025;DHT22;501;48.214;11.350;2022-11-15T01:40:49;4.30;62.60
1025;DHT22;501;48.214;11.350;2022-11-15T01:43:22;4.30;62.10
1025;DHT22;501;48.214;11.350;2022-11-15T01:45:52;4.30;62.10
1025;DHT22;501;48.214;11.350;2022-11-15T01:48:22;4.30;61.40
1025;DHT22;501;48.214;11.350;2022-11-15T01:50:50;4.30;61.10
1025;DHT22;501;48.214;11.350;2022-11-15T01:53:17;4.30;61.10
1025;DHT22;501;48.214;11.350;2022-11-15T01:55:44;4.30;61.40
1025;DHT22;501;48.214;11.350;2022-11-15T01:58:10;4.20;61.90
1025;DHT22;501;48.214;11.350;2022-11-15T02:00:35;4.30;62.60
1025;DHT22;501;48.214;11.350;2022-11-15T02:03:02;4.20;61.00
1025;DHT22;501;48.214;11.350;2022-11-15T02:05:29;4.30;60.10
1025;DHT22;501;48.214;11.350;2022-11-15T02:07:55;4.20;59.90
1025;DHT22;501;48.214;11.350;2022-11-15T02:10:23;4.20;60.00
1025;DHT22;501;48.214;11.350;2022-11-15T02:12:49;4.20;60.10
1025;DHT22;501;48.214;11.350;2022-11-15T02:15:16;4.20;60.40
1025;DHT22;501;48.214;11.350;2022-11-15T02:17:50;4.20;60.30
1025;DHT22;501;48.214;11.350;2022-11-15T02:20:29;4.20;60.20
1025;DHT22;501;48.214;11.350;2022-11-15T02:31:48;4.10;61.90
1025;DHT22;501;48.214;11.350;2022-11-15T02:37:05;4.10;63.80
1025;DHT22;501;48.214;11.350;2022-11-15T02:39:49;4.00;64.50
1025;DHT22;501;48.214;11.350;2022-11-15T02:42:23;4.00;63.90
1025;DHT22;501;48.214;11.350;2022-11-15T02:45:11;4.00;63.10
1025;DHT22;501;48.214;11.350;2022-11-15T02:47:42;4.00;63.00
1025;DHT22;501;48.214;11.350;2022-11-15T02:50:11;4.00;62.90
1025;DHT22;501;48.214;11.350;2022-11-15T02:52:37;4.00;62.40
1025;DHT22;501;48.214;11.350;2022-11-15T02:55:03;4.00;61.80
1025;DHT22;501;48.214;11.350;2022-11-15T03:00:12;4.00;61.70
1025;DHT22;501;48.214;11.350;2022-11-15T03:08:40;4.00;61.50
1025;DHT22;501;48.214;11.350;2022-11-15T03:11:12;3.90;60.60
1025;DHT22;501;48.214;11.350;2022-11-15T03:13:57;3.90;60.00
1025;DHT22;501;48.214;11.350;2022-11-15T03:16:28;3.90;59.80
1025;DHT22;501;48.214;11.350;2022-11-15T03:19:04;3.90;59.60
1025;DHT22;501;48.214;11.350;2022-11-15T03:21:33;3.90;59.10
1025;DHT22;501;48.214;11.350;2022-11-15T03:24:03;3.90;58.90
1025;DHT22;501;48.214;11.350;2022-11-15T03:26:29;3.90;58.40
1025;DHT22;501;48.214;11.350;2022-11-15T03:29:03;3.80;58.00
1025;DHT22;501;48.214;11.350;2022-11-15T03:31:34;3.80;58.40
1025;DHT22;501;48.214;11.350;2022-11-15T03:34:29;3.80;58.40
1025;DHT22;501;48.214;11.350;2022-11-15T03:36:55;3.80;58.30
1025;DHT22;501;48.214;11.350;2022-11-15T03:39:21;3.70;58.10
1025;DHT22;501;48.214;11.350;2022-11-15T03:42:03;3.70;58.00
1025;DHT22;501;48.214;11.350;2022-11-15T03:45:10;3.70;58.00
1025;DHT22;501;48.214;11.350;2022-11-15T03:47:39;3.70;58.70
1025;DHT22;501;48.214;11.350;2022-11-15T03:50:18;3.70;59.70
1025;DHT22;501;48.214;11.350;2022-11-15T03:52:45;3.70;59.00
1025;DHT22;501;48.214;11.350;2022-11-15T03:55:15;3.70;59.20
1025;DHT22;501;48.214;11.350;2022-11-15T03:57:41;3.70;59.00
1025;DHT22;501;48.214;11.350;2022-11-15T04:00:07;3.60;58.50
1025;DHT22;501;48.214;11.350;2022-11-15T04:02:32;3.60;58.30
1025;DHT22;501;48.214;11.350;2022-11-15T04:04:58;3.60;58.70
1025;DHT22;501;48.214;11.350;2022-11-15T04:07:24;3.60;58.40
1025;DHT22;501;48.214;11.350;2022-11-15T04:09:49;3.60;57.70
1025;DHT22;501;48.214;11.350;2022-11-15T04:12:44;3.50;57.20
1025;DHT22;501;48.214;11.350;2022-11-15T04:15:14;3.50;57.20
1025;DHT22;501;48.214;11.350;2022-11-15T04:17:46;3.40;57.10
1025;DHT22;501;48.214;11.350;2022-11-15T04:20:13;3.40;57.40
1025;DHT22;501;48.214;11.350;2022-11-15T04:22:59;3.30;57.80
1025;DHT22;501;48.214;11.350;2022-11-15T04:25:45;3.30;57.80
1025;DHT22;501;48.214;11.350;2022-11-15T04:28:11;3.30;57.50
1025;DHT22;501;48.214;11.350;2022-11-15T04:30:37;3.30;57.90
1025;DHT22;501;48.214;11.350;2022-11-15T04:33:03;3.30;57.10
1025;DHT22;501;48.214;11.350;2022-11-15T04:35:29;3.30;57.30
1025;DHT22;501;48.214;11.350;2022-11-15T04:37:55;3.20;57.40
1025;DHT22;501;48.214;11.350;2022-11-15T04:40:22;3.20;57.50
1025;DHT22;501;48.214;11.350;2022-11-15T04:42:47;3.20;58.10
1025;DHT22;501;48.214;11.350;2022-11-15T04:45:13;3.20;58.30
1025;DHT22;501;48.214;11.350;2022-11-15T04:47:38;3.20;58.50
1025;DHT22;501;48.214;11.350;2022-11-15T04:50:05;3.20;57.50
1025;DHT22;501;48.214;11.350;2022-11-15T04:52:30;3.20;57.40
1025;DHT22;501;48.214;11.350;2022-11-15T04:54:56;3.20;57.80
1025;DHT22;501;48.214;11.350;2022-11-15T04:57:22;3.10;58.00
1025;DHT22;501;48.214;11.350;2022-11-15T04:59:47;3.10;58.00
1025;DHT22;501;48.214;11.350;2022-11-15T05:02:13;3.20;58.10
1025;DHT22;501;48.214;11.350;2022-11-15T05:04:38;3.10;58.00
1025;DHT22;501;48.214;11.350;2022-11-15T05:07:04;3.10;57.90
1025;DHT22;501;48.214;11.350;2022-11-15T05:09:30;3.10;57.40
1025;DHT22;501;48.214;11.350;2022-11-15T05:11:55;3.00;57.50
1025;DHT22;501;48.214;11.350;2022-11-15T05:14:21;3.00;57.70
1025;DHT22;501;48.214;11.350;2022-11-15T05:16:46;2.90;57.90
1025;DHT22;501;48.214;11.350;2022-11-15T05:19:12;2.90;58.70
1025;DHT22;501;48.214;11.350;2022-11-15T05:21:38;2.90;59.20
1025;DHT22;501;48.214;11.350;2022-11-15T05:24:04;3.00;59.50
1025;DHT22;501;48.214;11.350;2022-11-15T05:26:30;3.00;59.10
1025;DHT22;501;48.214;11.350;2022-11-15T05:28:57;3.00;58.70
1025;DHT22;501;48.214;11.350;2022-11-15T05:31:24;3.00;58.40
1025;DHT22;501;48.214;11.350;2022-11-15T05:33:50;3.00;58.10
1025;DHT22;501;48.214;11.350;2022-11-15T05:36:38;2.90;58.00
1025;DHT22;501;48.214;11.350;2022-11-15T05:39:07;3.00;58.40
1025;DHT22;501;48.214;11.350;2022-11-15T05:41:46;2.90;58.30
1025;DHT22;501;48.214;11.350;2022-11-15T05:44:15;2.90;57.60
1025;DHT22;501;48.214;11.350;2022-11-15T05:46:43;3.00;57.10
1025;DHT22;501;48.214;11.350;2022-11-15T05:49:12;2.90;56.80
1025;DHT22;501;48.214;11.350;2022-11-15T05:51:41;2.90;56.70
1025;DHT22;501;48.214;11.350;2022-11-15T05:54:08;2.90;56.60
1025;DHT22;501;48.214;11.350;2022-11-15T05:56:35;2.90;56.10
1025;DHT22;501;48.214;11.350;2022-11-15T05:59:00;2.90;56.30
1025;DHT22;501;48.214;11.350;2022-11-15T06:01:26;2.90;56.80
1025;DHT22;501;48.214;11.350;2022-11-15T06:03:53;2.90;57.00
1025;DHT22;501;48.214;11.350;2022-11-15T06:06:18;2.90;57.00
1025;DHT22;501;48.214;11.350;2022-11-15T06:08:44;2.90;57.10
1025;DHT22;501;48.214;11.350;2022-11-15T06:11:10;2.90;57.10
1025;DHT22;501;48.214;11.350;2022-11-15T06:13:35;2.80;57.30
1025;DHT22;501;48.214;11.350;2022-11-15T06:16:01;2.80;57.70
1025;DHT22;501;48.214;11.350;2022-11-15T06:18:27;2.80;57.70
1025;DHT22;501;48.214;11.350;2022-11-15T06:20:52;2.80;57.60
1025;DHT22;501;48.214;11.350;2022-11-15T06:23:18;2.80;57.30
1025;DHT22;501;48.214;11.350;2022-11-15T06:25:44;2.80;57.60
1025;DHT22;501;48.214;11.350;2022-11-15T06:28:09;2.80;57.90
1025;DHT22;501;48.214;11.350;2022-11-15T06:30:35;2.80;57.10
1025;DHT22;501;48.214;11.350;2022-11-15T06:33:05;2.80;56.70
1025;DHT22;501;48.214;11.350;2022-11-15T06:35:33;2.80;56.60
1025;DHT22;501;48.214;11.350;2022-11-15T06:38:07;2.80;56.70
1025;DHT22;501;48.214;11.350;2022-11-15T06:40:35;2.80;56.60
1025;DHT22;501;48.214;11.350;2022-11-15T06:43:01;2.80;56.80
1025;DHT22;501;48.214;11.350;2022-11-15T06:45:30;2.80;57.50
1025;DHT22;501;48.214;11.350;2022-11-15T06:47:56;2.70;57.80
1025;DHT22;501;48.214;11.350;2022-11-15T06:50:22;2.80;58.30
1025;DHT22;501;48.214;11.350;2022-11-15T06:52:48;2.80;58.80
1025;DHT22;501;48.214;11.350;2022-11-15T06:55:13;2.70;59.00
1025;DHT22;501;48.214;11.350;2022-11-15T06:57:50;2.80;59.50
1025;DHT22;501;48.214;11.350;2022-11-15T07:00:17;2.80;60.00
1025;DHT22;501;48.214;11.350;2022-11-15T07:02:43;2.80;60.70
1025;DHT22;501;48.214;11.350;2022-11-15T07:05:09;2.80;60.80
1025;DHT22;501;48.214;11.350;2022-11-15T07:07:35;2.80;60.80
1025;DHT22;501;48.214;11.350;2022-11-15T07:10:00;2.90;60.80
1025;DHT22;501;48.214;11.350;2022-11-15T07:12:26;2.90;61.00
1025;DHT22;501;48.214;11.350;2022-11-15T07:14:52;3.00;61.30
1025;DHT22;501;48.214;11.350;2022-11-15T07:17:17;3.00;61.70
1025;DHT22;501;48.214;11.350;2022-11-15T07:19:43;3.00;62.30
1025;DHT22;501;48.214;11.350;2022-11-15T07:22:08;3.00;63.50
1025;DHT22;501;48.214;11.350;2022-11-15T07:24:34;3.00;64.40
1025;DHT22;501;48.214;11.350;2022-11-15T07:26:59;3.10;65.20
1025;DHT22;501;48.214;11.350;2022-11-15T07:29:25;3.10;65.60
1025;DHT22;501;48.214;11.350;2022-11-15T07:31:51;3.20;66.20
1025;DHT22;501;48.214;11.350;2022-11-15T07:34:16;3.30;67.20
1025;DHT22;501;48.214;11.350;2022-11-15T07:36:42;3.30;67.80
1025;DHT22;501;48.214;11.350;2022-11-15T07:39:07;3.40;68.30
1025;DHT22;501;48.214;11.350;2022-11-15T07:41:33;3.40;68.50
1025;DHT22;501;48.214;11.350;2022-11-15T07:43:59;3.50;69.30
1025;DHT22;501;48.214;11.350;2022-11-15T07:46:24;3.50;68.70
1025;DHT22;501;48.214;11.350;2022-11-15T07:48:50;3.60;68.70
1025;DHT22;501;48.214;11.350;2022-11-15T07:51:16;3.60;68.60
1025;DHT22;501;48.214;11.350;2022-11-15T07:53:42;3.70;68.70
1025;DHT22;501;48.214;11.350;2022-11-15T07:56:08;3.70;68.50
1025;DHT22;501;48.214;11.350;2022-11-15T07:58:34;3.80;68.80
1025;DHT22;501;48.214;11.350;2022-11-15T08:01:07;3.80;68.90
1025;DHT22;501;48.214;11.350;2022-11-15T08:03:34;3.90;69.10
1025;DHT22;501;48.214;11.350;2022-11-15T08:06:00;3.90;68.80
1025;DHT22;501;48.214;11.350;2022-11-15T08:08:26;4.00;69.00
1025;DHT22;501;48.214;11.350;2022-11-15T08:10:51;4.00;68.90
1025;DHT22;501;48.214;11.350;2022-11-15T08:13:17;4.10;68.90
1025;DHT22;501;48.214;11.350;2022-11-15T08:15:43;4.10;69.30
1025;DHT22;501;48.214;11.350;2022-11-15T08:18:12;4.20;69.80
1025;DHT22;501;48.214;11.350;2022-11-15T08:20:38;4.20;70.30
1025;DHT22;501;48.214;11.350;2022-11-15T08:23:04;4.30;70.30
1025;DHT22;501;48.214;11.350;2022-11-15T08:25:31;4.30;70.30
1025;DHT22;501;48.214;11.350;2022-11-15T08:27:59;4.40;70.50
1025;DHT22;501;48.214;11.350;2022-11-15T08:30:26;4.50;70.50
1025;DHT22;501;48.214;11.350;2022-11-15T08:32:53;4.50;70.10
1025;DHT22;501;48.214;11.350;2022-11-15T08:35:20;4.60;70.40
1025;DHT22;501;48.214;11.350;2022-11-15T08:37:46;4.60;70.20
1025;DHT22;501;48.214;11.350;2022-11-15T08:40:12;4.70;69.30
1025;DHT22;501;48.214;11.350;2022-11-15T08:42:39;4.80;68.70
1025;DHT22;501;48.214;11.350;2022-11-15T08:45:06;4.80;68.00
1025;DHT22;501;48.214;11.350;2022-11-15T08:47:32;4.90;67.40
1025;DHT22;501;48.214;11.350;2022-11-15T08:49:58;4.90;67.10
1025;DHT22;501;48.214;11.350;2022-11-15T08:52:24;5.00;66.80
1025;DHT22;501;48.214;11.350;2022-11-15T08:54:49;5.10;66.90
1025;DHT22;501;48.214;11.350;2022-11-15T08:57:15;5.10;66.80
1025;DHT22;501;48.214;11.350;2022-11-15T08:59:41;5.10;66.60
1025;DHT22;501;48.214;11.350;2022-11-15T09:02:10;5.20;67.00
1025;DHT22;501;48.214;11.350;2022-11-15T09:04:36;5.30;67.40
1025;DHT22;501;48.214;11.350;2022-11-15T09:07:02;5.40;67.80
1025;DHT22;501;48.214;11.350;2022-11-15T09:09:28;5.40;67.10
1025;DHT22;501;48.214;11.350;2022-11-15T09:11:53;5.50;67.10
1025;DHT22;501;48.214;11.350;2022-11-15T09:14:19;5.50;67.00
1025;DHT22;501;48.214;11.350;2022-11-15T09:16:44;5.60;67.30
1025;DHT22;501;48.214;11.350;2022-11-15T09:19:10;5.70;67.20
1025;DHT22;501;48.214;11.350;2022-11-15T09:21:35;5.70;67.20
1025;DHT22;501;48.214;11.350;2022-11-15T09:24:01;5.80;67.00
1025;DHT22;501;48.214;11.350;2022-11-15T09:26:27;5.80;66.60
1025;DHT22;501;48.214;11.350;2022-11-15T09:28:53;5.90;66.60
1025;DHT22;501;48.214;11.350;2022-11-15T09:31:18;5.90;67.30
1025;DHT22;501;48.214;11.350;2022-11-15T09:33:44;6.00;67.60
1025;DHT22;501;48.214;11.350;2022-11-15T09:36:11;6.00;69.20
1025;DHT22;501;48.214;11.350;2022-11-15T09:38:38;6.10;70.40
1025;DHT22;501;48.214;11.350;2022-11-15T09:49:19;6.40;68.30
1025;DHT22;501;48.214;11.350;2022-11-15T09:51:47;6.50;68.30
1025;DHT22;501;48.214;11.350;2022-11-15T09:56:45;6.60;66.40
1025;DHT22;501;48.214;11.350;2022-11-15T10:01:55;6.80;66.10
1025;DHT22;501;48.214;11.350;2022-11-15T10:04:23;6.90;65.80
1025;DHT22;501;48.214;11.350;2022-11-15T10:09:57;7.00;64.90
1025;DHT22;501;48.214;11.350;2022-11-15T10:12:25;7.10;65.00
1025;DHT22;501;48.214;11.350;2022-11-15T10:15:00;7.20;64.80
1025;DHT22;501;48.214;11.350;2022-11-15T10:22:39;7.40;62.40
1025;DHT22;501;48.214;11.350;2022-11-15T10:27:34;7.60;59.80
1025;DHT22;501;48.214;11.350;2022-11-15T10:30:00;7.60;58.80
1025;DHT22;501;48.214;11.350;2022-11-15T10:32:26;7.70;58.40
1025;DHT22;501;48.214;11.350;2022-11-15T10:34:52;7.80;58.30
1025;DHT22;501;48.214;11.350;2022-11-15T10:37:28;7.90;58.70
1025;DHT22;501;48.214;11.350;2022-11-15T10:40:22;7.90;58.10
1025;DHT22;501;48.214;11.350;2022-11-15T10:42:49;8.00;56.90
1025;DHT22;501;48.214;11.350;2022-11-15T10:45:30;8.10;56.90
1025;DHT22;501;48.214;11.350;2022-11-15T10:48:20;8.20;57.00
1025;DHT22;501;48.214;11.350;2022-11-15T10:50:48;8.20;57.00
1025;DHT22;501;48.214;11.350;2022-11-15T10:53:26;8.30;57.10
1025;DHT22;501;48.214;11.350;2022-11-15T10:55:56;8.40;56.60
1025;DHT22;501;48.214;11.350;2022-11-15T11:00:53;8.60;55.40
1025;DHT22;501;48.214;11.350;2022-11-15T11:03:33;8.70;55.70
1025;DHT22;501;48.214;11.350;2022-11-15T11:06:12;8.80;55.40
1025;DHT22;501;48.214;11.350;2022-11-15T11:08:38;8.80;55.30
1025;DHT22;501;48.214;11.350;2022-11-15T11:11:05;9.00;54.50
1025;DHT22;501;48.214;11.350;2022-11-15T11:13:35;9.10;53.50
1025;DHT22;501;48.214;11.350;2022-11-15T11:24:44;9.30;51.00
1025;DHT22;501;48.214;11.350;2022-11-15T11:30:18;9.50;51.10
1025;DHT22;501;48.214;11.350;2022-11-15T11:33:03;9.60;50.60
1025;DHT22;501;48.214;11.350;2022-11-15T11:46:49;10.00;48.10
1025;DHT22;501;48.214;11.350;2022-11-15T11:49:24;10.10;47.50
1025;DHT22;501;48.214;11.350;2022-11-15T11:52:10;10.20;47.80
1025;DHT22;501;48.214;11.350;2022-11-15T11:55:05;10.30;47.80
1025;DHT22;501;48.214;11.350;2022-11-15T11:57:54;10.30;47.30
1025;DHT22;501;48.214;11.350;2022-11-15T12:00:24;10.40;46.80
1025;DHT22;501;48.214;11.350;2022-11-15T12:03:07;10.50;46.70
1025;DHT22;501;48.214;11.350;2022-11-15T12:05:46;10.60;46.50
1025;DHT22;501;48.214;11.350;2022-11-15T12:08:40;10.70;45.40
1025;DHT22;501;48.214;11.350;2022-11-15T12:11:20;10.90;45.40
1025;DHT22;501;48.214;11.350;2022-11-15T12:13:50;11.00;42.80
1025;DHT22;501;48.214;11.350;2022-11-15T12:16:26;11.10;41.80
1025;DHT22;501;48.214;11.350;2022-11-15T12:18:54;11.20;41.70
1025;DHT22;501;48.214;11.350;2022-11-15T12:21:49;11.30;40.90
1025;DHT22;501;48.214;11.350;2022-11-15T12:24:18;11.40;41.20
1025;DHT22;501;48.214;11.350;2022-11-15T12:26:54;11.60;41.60
1025;DHT22;501;48.214;11.350;2022-11-15T12:29:50;11.70;41.00
1025;DHT22;501;48.214;11.350;2022-11-15T12:32:31;12.00;39.50
1025;DHT22;501;48.214;11.350;2022-11-15T12:34:59;12.20;39.80
1025;DHT22;501;48.214;11.350;2022-11-15T12:42:39;13.20;37.90
1025;DHT22;501;48.214;11.350;2022-11-15T12:47:49;14.90;36.80
1025;DHT22;501;48.214;11.350;2022-11-15T12:50:15;15.80;35.00
1025;DHT22;501;48.214;11.350;2022-11-15T13:01:52;19.60;27.70
1025;DHT22;501;48.214;11.350;2022-11-15T13:06:48;20.90;26.00
1025;DHT22;501;48.214;11.350;2022-11-15T13:14:56;22.20;23.50
1025;DHT22;501;48.214;11.350;2022-11-15T13:19:53;22.90;23.20
1025;DHT22;501;48.214;11.350;2022-11-15T13:22:20;23.30;22.20
1025;DHT22;501;48.214;11.350;2022-11-15T13:25:27;23.60;21.90
1025;DHT22;501;48.214;11.350;2022-11-15T13:27:56;24.00;20.60
1025;DHT22;501;48.214;11.350;2022-11-15T13:30:27;24.40;20.20
1025;DHT22;501;48.214;11.350;2022-11-15T13:32:54;24.70;20.00
1025;DHT22;501;48.214;11.350;2022-11-15T13:35:25;25.00;19.00
1025;DHT22;501;48.214;11.350;2022-11-15T13:37:53;25.40;18.80
1025;DHT22;501;48.214;11.350;2022-11-15T13:42:47;25.20;17.80
1025;DHT22;501;48.214;11.350;2022-11-15T13:45:15;24.80;18.30
1025;DHT22;501;48.214;11.350;2022-11-15T13:47:41;24.50;18.00
1025;DHT22;501;48.214;11.350;2022-11-15T13:50:11;24.20;17.90
1025;DHT22;501;48.214;11.350;2022-11-15T13:52:39;23.80;18.20
1025;DHT22;501;48.214;11.350;2022-11-15T13:55:14;23.40;18.30
1025;DHT22;501;48.214;11.350;2022-11-15T13:57:46;22.80;19.30
1025;DHT22;501;48.214;11.350;2022-11-15T14:02:56;21.60;20.40
1025;DHT22;501;48.214;11.350;2022-11-15T14:05:24;21.00;21.70
1025;DHT22;501;48.214;11.350;2022-11-15T14:08:12;20.50;22.60
1025;DHT22;501;48.214;11.350;2022-11-15T14:10:46;19.80;23.10
1025;DHT22;501;48.214;11.350;2022-11-15T14:13:28;19.10;24.30
1025;DHT22;501;48.214;11.350;2022-11-15T14:15:54;18.50;25.00
1025;DHT22;501;48.214;11.350;2022-11-15T14:21:09;17.40;26.80
1025;DHT22;501;48.214;11.350;2022-11-15T14:23:34;16.90;27.40
1025;DHT22;501;48.214;11.350;2022-11-15T14:26:00;16.50;27.80
1025;DHT22;501;48.214;11.350;2022-11-15T14:30:54;15.80;28.80
1025;DHT22;501;48.214;11.350;2022-11-15T14:33:29;15.50;29.50
1025;DHT22;501;48.214;11.350;2022-11-15T14:35:57;15.30;30.00
1025;DHT22;501;48.214;11.350;2022-11-15T14:38:25;14.90;30.70
1025;DHT22;501;48.214;11.350;2022-11-15T14:40:52;14.70;31.30
1025;DHT22;501;48.214;11.350;2022-11-15T14:43:19;14.50;31.90
1025;DHT22;501;48.214;11.350;2022-11-15T14:45:45;14.30;32.60
1025;DHT22;501;48.214;11.350;2022-11-15T14:48:10;14.00;33.10
1025;DHT22;501;48.214;11.350;2022-11-15T14:50:36;13.90;33.80
1025;DHT22;501;48.214;11.350;2022-11-15T14:53:02;13.70;34.40
1025;DHT22;501;48.214;11.350;2022-11-15T14:55:31;13.60;34.70
1025;DHT22;501;48.214;11.350;2022-11-15T14:57:58;13.40;35.00
1025;DHT22;501;48.214;11.350;2022-11-15T15:00:24;13.30;35.60
1025;DHT22;501;48.214;11.350;2022-11-15T15:02:52;13.20;36.00
1025;DHT22;501;48.214;11.350;2022-11-15T15:05:21;13.10;36.60
1025;DHT22;501;48.214;11.350;2022-11-15T15:07:47;13.00;36.80
1025;DHT22;501;48.214;11.350;2022-11-15T15:10:14;12.80;36.90
1025;DHT22;501;48.214;11.350;2022-11-15T15:12:41;12.80;37.60
1025;DHT22;501;48.214;11.350;2022-11-15T15:15:12;12.60;38.40
1025;DHT22;501;48.214;11.350;2022-11-15T15:17:38;12.60;38.00
1025;DHT22;501;48.214;11.350;2022-11-15T15:20:04;12.50;38.30
1025;DHT22;501;48.214;11.350;2022-11-15T15:22:30;12.30;38.20
1025;DHT22;501;48.214;11.350;2022-11-15T15:24:55;12.20;38.60
1025;DHT22;501;48.214;11.350;2022-11-15T15:27:21;12.10;39.00
1025;DHT22;501;48.214;11.350;2022-11-15T15:29:47;12.00;39.50
1025;DHT22;501;48.214;11.350;2022-11-15T15:32:12;11.90;39.80
1025;DHT22;501;48.214;11.350;2022-11-15T15:34:38;11.70;40.20
1025;DHT22;501;48.214;11.350;2022-11-15T15:37:25;11.60;40.50
1025;DHT22;501;48.214;11.350;2022-11-15T15:39:52;11.50;41.10
1025;DHT22;501;48.214;11.350;2022-11-15T15:42:19;11.40;41.40
1025;DHT22;501;48.214;11.350;2022-11-15T15:44:46;11.30;41.40
1025;DHT22;501;48.214;11.350;2022-11-15T15:47:13;11.20;41.80
1025;DHT22;501;48.214;11.350;2022-11-15T15:49:40;11.10;42.20
1025;DHT22;501;48.214;11.350;2022-11-15T15:52:06;11.00;42.90
1025;DHT22;501;48.214;11.350;2022-11-15T15:54:31;10.90;43.60
1025;DHT22;501;48.214;11.350;2022-11-15T15:56:57;10.80;43.80
1025;DHT22;501;48.214;11.350;2022-11-15T15:59:23;10.70;44.10
1025;DHT22;501;48.214;11.350;2022-11-15T16:01:48;10.60;44.50
1025;DHT22;501;48.214;11.350;2022-11-15T16:04:14;10.50;44.90
1025;DHT22;501;48.214;11.350;2022-11-15T16:06:40;10.40;45.20
1025;DHT22;501;48.214;11.350;2022-11-15T16:09:16;10.30;45.40
1025;DHT22;501;48.214;11.350;2022-11-15T16:11:43;10.30;45.80
1025;DHT22;501;48.214;11.350;2022-11-15T16:14:09;10.20;46.50
1025;DHT22;501;48.214;11.350;2022-11-15T16:16:35;10.10;47.90
1025;DHT22;501;48.214;11.350;2022-11-15T16:19:01;10.00;47.70
1025;DHT22;501;48.214;11.350;2022-11-15T16:21:27;10.00;47.80
1025;DHT22;501;48.214;11.350;2022-11-15T16:23:53;9.90;48.80
1025;DHT22;501;48.214;11.350;2022-11-15T16:26:25;9.90;48.90
1025;DHT22;501;48.214;11.350;2022-11-15T16:28:50;9.80;49.00
1025;DHT22;501;48.214;11.350;2022-11-15T16:31:16;9.80;49.00
1025;DHT22;501;48.214;11.350;2022-11-15T16:33:44;9.80;49.60
1025;DHT22;501;48.214;11.350;2022-11-15T16:36:24;9.70;49.70
1025;DHT22;501;48.214;11.350;2022-11-15T16:38:50;9.60;49.60
1025;DHT22;501;48.214;11.350;2022-11-15T16:41:17;9.60;49.60
1025;DHT22;501;48.214;11.350;2022-11-15T16:43:47;9.60;49.60
1025;DHT22;501;48.214;11.350;2022-11-15T16:46:18;9.60;50.50
1025;DHT22;501;48.214;11.350;2022-11-15T16:48:45;9.50;51.00
1025;DHT22;501;48.214;11.350;2022-11-15T16:51:10;9.50;51.50
1025;DHT22;501;48.214;11.350;2022-11-15T16:53:36;9.40;52.30
1025;DHT22;501;48.214;11.350;2022-11-15T16:56:02;9.40;53.20
1025;DHT22;501;48.214;11.350;2022-11-15T16:58:27;9.30;53.90
1025;DHT22;501;48.214;11.350;2022-11-15T17:00:54;9.30;53.90
1025;DHT22;501;48.214;11.350;2022-11-15T17:03:22;9.30;53.60
1025;DHT22;501;48.214;11.350;2022-11-15T17:05:48;9.30;52.80
1025;DHT22;501;48.214;11.350;2022-11-15T17:08:14;9.30;53.00
1025;DHT22;501;48.214;11.350;2022-11-15T17:10:40;9.20;52.60
1025;DHT22;501;48.214;11.350;2022-11-15T17:13:09;9.20;52.50
1025;DHT22;501;48.214;11.350;2022-11-15T17:15:36;9.20;52.90
1025;DHT22;501;48.214;11.350;2022-11-15T17:18:02;9.10;54.30
1025;DHT22;501;48.214;11.350;2022-11-15T17:20:27;9.10;55.70
1025;DHT22;501;48.214;11.350;2022-11-15T17:22:53;9.10;54.50
1025;DHT22;501;48.214;11.350;2022-11-15T17:25:19;9.00;53.80
1025;DHT22;501;48.214;11.350;2022-11-15T17:27:45;9.00;53.70
1025;DHT22;501;48.214;11.350;2022-11-15T17:30:12;9.00;55.60
1025;DHT22;501;48.214;11.350;2022-11-15T17:32:39;8.90;56.20
1025;DHT22;501;48.214;11.350;2022-11-15T17:35:05;8.80;56.80
1025;DHT22;501;48.214;11.350;2022-11-15T17:37:32;8.70;58.00
1025;DHT22;501;48.214;11.350;2022-11-15T17:39:57;8.70;58.20
1025;DHT22;501;48.214;11.350;2022-11-15T17:42:23;8.60;57.30
1025;DHT22;501;48.214;11.350;2022-11-15T17:44:48;8.60;57.30
1025;DHT22;501;48.214;11.350;2022-11-15T17:47:14;8.60;56.20
1025;DHT22;501;48.214;11.350;2022-11-15T17:49:40;8.60;55.80
1025;DHT22;501;48.214;11.350;2022-11-15T17:52:06;8.60;55.80
1025;DHT22;501;48.214;11.350;2022-11-15T17:54:32;8.50;55.70
1025;DHT22;501;48.214;11.350;2022-11-15T17:56:58;8.50;55.90
1025;DHT22;501;48.214;11.350;2022-11-15T17:59:23;8.50;55.40
1025;DHT22;501;48.214;11.350;2022-11-15T18:01:49;8.50;55.40
1025;DHT22;501;48.214;11.350;2022-11-15T18:04:15;8.40;56.40
1025;DHT22;501;48.214;11.350;2022-11-15T18:06:41;8.40;56.00
1025;DHT22;501;48.214;11.350;2022-11-15T18:09:07;8.40;56.10
1025;DHT22;501;48.214;11.350;2022-11-15T18:11:34;8.40;57.50